Time;durP1;ratioP1;P1;durP2;ratioP2;P2;SDS_P1;SDS_P2;PMS_P1;PMS_P2;Temp;Humidity;BMP_temperature;BMP_pressure;BME280_temperature;BME280_humidity;BME280_pressure;Samples;Min_cycle;Max_cycle;Signal;HPM_P1;HPM_P2
2023/05/20 00:00:24;;;;;;;4.22;1.00;;;;;;;;;;5282080;28;20024;-76
2023/05/20 00:02:56;;;;;;;4.30;0.75;;;;;;;;;;5280649;28;20027;-77
2023/05/20 00:05:27;;;;;;;3.58;0.80;;;;;;;;;;5281944;28;20039;-76
2023/05/20 00:07:59;;;;;;;3.23;0.80;;;;;;;;;;5281217;28;20024;-76
2023/05/20 00:10:30;;;;;;;3.80;0.70;;;;;;;;;;5284526;28;20267;-76
2023/05/20 00:13:01;;;;;;;5.93;0.80;;;;;;;;;;5285643;28;20053;-76
2023/05/20 00:15:34;;;;;;;4.05;0.85;;;;;;;;;;5285680;28;20262;-76
2023/05/20 00:18:05;;;;;;;6.78;0.95;;;;;;;;;;5284810;28;20023;-76
2023/05/20 00:20:36;;;;;;;5.68;0.70;;;;;;;;;;5285465;28;20017;-76
2023/05/20 00:23:07;;;;;;;3.43;0.70;;;;;;;;;;5285387;28;20462;-76
2023/05/20 00:25:38;;;;;;;4.97;0.70;;;;;;;;;;5284510;28;20313;-76
2023/05/20 00:28:09;;;;;;;3.57;0.70;;;;;;;;;;5285872;28;20020;-76
2023/05/20 00:30:41;;;;;;;6.47;1.03;;;;;;;;;;5285056;28;20290;-77
2023/05/20 00:33:12;;;;;;;4.85;0.80;;;;;;;;;;5284759;28;20263;-77
2023/05/20 00:35:43;;;;;;;4.07;0.90;;;;;;;;;;5284703;28;20021;-77
2023/05/20 00:38:14;;;;;;;5.10;1.08;;;;;;;;;;5284515;28;20267;-76
2023/05/20 00:40:46;;;;;;;8.93;1.20;;;;;;;;;;5284605;28;20048;-77
2023/05/20 00:43:19;;;;;;;5.55;0.90;;;;;;;;;;5285301;28;20024;-76
2023/05/20 00:45:51;;;;;;;4.55;0.80;;;;;;;;;;5283835;28;20028;-75
2023/05/20 00:48:22;;;;;;;6.13;0.90;;;;;;;;;;5285427;28;20101;-76
2023/05/20 00:50:53;;;;;;;4.95;0.88;;;;;;;;;;5284694;28;20044;-75
2023/05/20 00:53:25;;;;;;;3.63;0.85;;;;;;;;;;5284349;28;20025;-75
2023/05/20 00:55:56;;;;;;;4.60;1.08;;;;;;;;;;5284609;28;20095;-76
2023/05/20 00:58:27;;;;;;;5.75;1.33;;;;;;;;;;5284850;28;20052;-76
2023/05/20 01:00:58;;;;;;;4.38;1.15;;;;;;;;;;5283637;28;20099;-76
2023/05/20 01:03:29;;;;;;;6.32;1.45;;;;;;;;;;5284745;28;20020;-74
2023/05/20 01:06:01;;;;;;;4.68;1.00;;;;;;;;;;5284643;28;20018;-75
2023/05/20 01:08:33;;;;;;;7.55;1.42;;;;;;;;;;5283930;28;20123;-75
2023/05/20 01:11:10;;;;;;;5.82;1.20;;;;;;;;;;5284549;28;20092;-76
2023/05/20 01:13:45;;;;;;;4.35;0.98;;;;;;;;;;5283646;28;20021;-76
2023/05/20 01:16:17;;;;;;;5.22;1.23;;;;;;;;;;5284693;28;20074;-76
2023/05/20 01:18:49;;;;;;;4.35;0.80;;;;;;;;;;5284187;28;20931;-76
2023/05/20 01:21:21;;;;;;;4.55;1.02;;;;;;;;;;5283600;28;20044;-76
2023/05/20 01:23:52;;;;;;;5.38;1.38;;;;;;;;;;5283987;28;20052;-76
2023/05/20 01:26:25;;;;;;;6.57;1.20;;;;;;;;;;5284750;28;20408;-76
2023/05/20 01:28:57;;;;;;;4.93;1.35;;;;;;;;;;5283250;28;20643;-76
2023/05/20 01:31:30;;;;;;;3.55;1.10;;;;;;;;;;5284648;28;20063;-76
2023/05/20 01:34:01;;;;;;;5.93;1.20;;;;;;;;;;5284032;28;20024;-75
2023/05/20 01:36:32;;;;;;;5.43;1.45;;;;;;;;;;5283530;28;20020;-76
2023/05/20 01:39:05;;;;;;;2.58;0.80;;;;;;;;;;5283923;28;20092;-76
2023/05/20 01:41:36;;;;;;;3.13;0.95;;;;;;;;;;5283339;28;20020;-76
2023/05/20 01:44:08;;;;;;;3.75;1.27;;;;;;;;;;5283746;28;20056;-76
2023/05/20 01:46:40;;;;;;;4.35;1.13;;;;;;;;;;5283778;28;20016;-76
2023/05/20 01:49:11;;;;;;;6.47;1.30;;;;;;;;;;5283172;28;20028;-76
2023/05/20 01:51:42;;;;;;;4.90;1.03;;;;;;;;;;5283415;28;20426;-76
2023/05/20 01:54:13;;;;;;;4.25;1.15;;;;;;;;;;5283750;28;20274;-76
2023/05/20 01:56:45;;;;;;;4.53;1.00;;;;;;;;;;5282439;28;20062;-76
2023/05/20 01:59:16;;;;;;;6.10;1.45;;;;;;;;;;5283979;28;20450;-76
2023/05/20 02:01:47;;;;;;;4.70;1.15;;;;;;;;;;5283286;28;20008;-76
2023/05/20 02:04:18;;;;;;;4.75;1.25;;;;;;;;;;5283073;28;20104;-76
2023/05/20 02:06:50;;;;;;;7.68;1.23;;;;;;;;;;5283122;28;20023;-76
2023/05/20 02:09:21;;;;;;;3.45;1.20;;;;;;;;;;5283550;28;20375;-76
2023/05/20 02:11:52;;;;;;;6.27;1.37;;;;;;;;;;5282644;28;20052;-76
2023/05/20 02:14:23;;;;;;;4.38;1.13;;;;;;;;;;5283709;28;20250;-76
2023/05/20 02:16:54;;;;;;;5.03;1.50;;;;;;;;;;5282092;28;20052;-76
2023/05/20 02:19:25;;;;;;;4.70;1.10;;;;;;;;;;5283364;28;20017;-76
2023/05/20 02:21:57;;;;;;;5.35;1.30;;;;;;;;;;5282540;28;20314;-76
2023/05/20 02:24:28;;;;;;;4.03;1.27;;;;;;;;;;5282659;28;20379;-76
2023/05/20 02:27:00;;;;;;;3.67;1.17;;;;;;;;;;5282760;28;20059;-76
2023/05/20 02:29:31;;;;;;;5.90;1.27;;;;;;;;;;5283060;28;20379;-76
2023/05/20 02:32:03;;;;;;;6.57;1.90;;;;;;;;;;5281449;28;20019;-76
2023/05/20 02:34:34;;;;;;;4.88;1.40;;;;;;;;;;5282928;28;20021;-77
2023/05/20 02:37:05;;;;;;;6.80;1.77;;;;;;;;;;5282918;28;20027;-76
2023/05/20 02:39:36;;;;;;;6.32;1.52;;;;;;;;;;5282154;28;20269;-76
2023/05/20 02:42:07;;;;;;;5.35;1.88;;;;;;;;;;5282608;28;20263;-76
2023/05/20 02:44:39;;;;;;;6.15;1.23;;;;;;;;;;5281467;28;20031;-76
2023/05/20 02:47:11;;;;;;;4.07;1.45;;;;;;;;;;5282793;28;20012;-77
2023/05/20 02:49:42;;;;;;;5.40;1.40;;;;;;;;;;5282507;28;20017;-76
2023/05/20 02:52:15;;;;;;;5.97;1.38;;;;;;;;;;5282170;28;20029;-76
2023/05/20 02:54:46;;;;;;;4.68;1.40;;;;;;;;;;5282239;28;20278;-77
2023/05/20 02:57:17;;;;;;;5.95;1.40;;;;;;;;;;5282575;28;20084;-77
2023/05/20 02:59:48;;;;;;;6.32;1.70;;;;;;;;;;5280507;28;20411;-77
2023/05/20 03:02:19;;;;;;;7.15;1.83;;;;;;;;;;5281855;28;20016;-77
2023/05/20 03:04:53;;;;;;;3.72;1.20;;;;;;;;;;5281179;28;20029;-77
2023/05/20 03:07:24;;;;;;;4.03;1.40;;;;;;;;;;5280951;28;20013;-77
2023/05/20 03:09:57;;;;;;;7.03;1.65;;;;;;;;;;5281290;28;20104;-77
2023/05/20 03:12:29;;;;;;;6.00;1.50;;;;;;;;;;5281785;28;20020;-77
2023/05/20 03:15:00;;;;;;;5.85;1.60;;;;;;;;;;5280752;28;20017;-77
2023/05/20 03:17:31;;;;;;;3.78;1.50;;;;;;;;;;5281456;28;20012;-77
2023/05/20 03:20:06;;;;;;;5.72;1.70;;;;;;;;;;5280537;28;20825;-77
2023/05/20 03:22:38;;;;;;;5.60;1.90;;;;;;;;;;5281491;28;20013;-77
2023/05/20 03:25:09;;;;;;;4.97;1.40;;;;;;;;;;5281627;28;20059;-77
2023/05/20 03:27:41;;;;;;;6.88;1.63;;;;;;;;;;5280637;28;20343;-77
2023/05/20 03:30:13;;;;;;;7.55;1.80;;;;;;;;;;5281745;28;20506;-77
2023/05/20 03:32:44;;;;;;;4.68;1.58;;;;;;;;;;5280995;28;20024;-77
2023/05/20 03:35:15;;;;;;;6.72;1.40;;;;;;;;;;5280638;28;20048;-77
2023/05/20 03:37:46;;;;;;;5.93;1.83;;;;;;;;;;5280728;28;20473;-77
2023/05/20 03:40:19;;;;;;;4.57;1.40;;;;;;;;;;5281172;28;20041;-77
2023/05/20 03:42:50;;;;;;;2.78;1.55;;;;;;;;;;5278807;28;20017;-77
2023/05/20 03:45:22;;;;;;;4.75;1.48;;;;;;;;;;5280637;28;20039;-77
2023/05/20 03:47:53;;;;;;;4.82;2.05;;;;;;;;;;5279803;28;20569;-77
2023/05/20 03:50:24;;;;;;;4.10;1.27;;;;;;;;;;5281290;28;20371;-77
2023/05/20 03:52:55;;;;;;;4.05;1.80;;;;;;;;;;5280464;28;20086;-77
2023/05/20 03:55:26;;;;;;;5.28;1.50;;;;;;;;;;5280095;28;20021;-77
2023/05/20 03:57:58;;;;;;;4.45;1.52;;;;;;;;;;5243469;28;1062843;-77
2023/05/20 04:00:30;;;;;;;6.47;1.92;;;;;;;;;;5281906;28;20036;-77
2023/05/20 04:03:01;;;;;;;5.72;1.42;;;;;;;;;;5280957;28;20025;-77
2023/05/20 04:05:33;;;;;;;6.95;2.08;;;;;;;;;;5281629;28;20029;-77
2023/05/20 04:08:04;;;;;;;5.07;1.80;;;;;;;;;;5281606;28;20089;-77
2023/05/20 04:10:36;;;;;;;5.72;1.45;;;;;;;;;;5281028;28;20044;-77
2023/05/20 04:13:07;;;;;;;4.30;1.50;;;;;;;;;;5281890;28;20018;-77
2023/05/20 04:15:38;;;;;;;4.80;1.88;;;;;;;;;;5281291;28;20013;-77
2023/05/20 04:18:09;;;;;;;3.33;1.10;;;;;;;;;;5280934;28;20108;-77
2023/05/20 04:20:40;;;;;;;5.22;1.83;;;;;;;;;;5281090;28;20017;-77
2023/05/20 04:23:12;;;;;;;3.83;1.45;;;;;;;;;;5280685;28;20499;-77
2023/05/20 04:25:43;;;;;;;3.30;1.35;;;;;;;;;;5280753;28;20877;-77
2023/05/20 04:28:15;;;;;;;3.38;1.70;;;;;;;;;;5281739;28;20491;-77
2023/05/20 04:30:46;;;;;;;4.20;1.58;;;;;;;;;;5280287;28;20074;-77
2023/05/20 04:33:17;;;;;;;6.43;1.95;;;;;;;;;;5281452;28;20069;-77
2023/05/20 04:35:48;;;;;;;4.65;1.42;;;;;;;;;;5281141;28;20563;-77
2023/05/20 04:38:19;;;;;;;4.07;1.80;;;;;;;;;;5280829;28;20055;-77
2023/05/20 04:40:51;;;;;;;5.53;1.80;;;;;;;;;;5280950;28;20263;-77
2023/05/20 04:43:22;;;;;;;4.63;1.63;;;;;;;;;;5281316;28;20358;-77
2023/05/20 04:45:53;;;;;;;5.53;1.77;;;;;;;;;;5280363;28;20032;-77
2023/05/20 04:48:24;;;;;;;4.30;1.33;;;;;;;;;;5281763;28;20017;-77
2023/05/20 04:50:56;;;;;;;6.47;1.60;;;;;;;;;;5280893;28;20275;-77
2023/05/20 04:53:29;;;;;;;6.40;1.67;;;;;;;;;;5280654;28;20266;-76
2023/05/20 04:56:00;;;;;;;4.25;1.70;;;;;;;;;;5283513;28;20274;-77
2023/05/20 04:58:32;;;;;;;5.68;1.92;;;;;;;;;;5283647;28;20639;-74
2023/05/20 05:01:03;;;;;;;6.30;2.25;;;;;;;;;;5284919;28;20358;-75
2023/05/20 05:03:34;;;;;;;6.32;1.70;;;;;;;;;;5284686;28;20410;-76
2023/05/20 05:06:05;;;;;;;5.10;1.73;;;;;;;;;;5283717;28;20613;-76
2023/05/20 05:08:36;;;;;;;5.97;1.97;;;;;;;;;;5284474;28;20023;-76
2023/05/20 05:11:08;;;;;;;6.88;2.10;;;;;;;;;;5284768;28;20274;-76
2023/05/20 05:13:39;;;;;;;5.95;1.98;;;;;;;;;;5283415;28;20098;-76
2023/05/20 05:16:10;;;;;;;8.05;2.25;;;;;;;;;;5284876;28;20050;-76
2023/05/20 05:18:41;;;;;;;4.35;1.70;;;;;;;;;;5284124;28;20070;-76
2023/05/20 05:21:12;;;;;;;3.60;1.60;;;;;;;;;;5283899;28;20302;-76
2023/05/20 05:23:43;;;;;;;5.50;2.20;;;;;;;;;;5283985;28;20275;-76
2023/05/20 05:26:15;;;;;;;5.07;2.00;;;;;;;;;;5284537;28;20319;-76
2023/05/20 05:28:46;;;;;;;5.18;2.00;;;;;;;;;;5282919;28;20020;-76
2023/05/20 05:31:17;;;;;;;5.35;1.88;;;;;;;;;;5284274;28;20494;-76
2023/05/20 05:33:48;;;;;;;8.48;2.15;;;;;;;;;;5283258;28;20609;-76
2023/05/20 05:36:19;;;;;;;4.10;1.83;;;;;;;;;;5284466;28;20021;-76
2023/05/20 05:38:50;;;;;;;7.63;2.42;;;;;;;;;;5283530;28;20051;-76
2023/05/20 05:41:22;;;;;;;4.72;1.90;;;;;;;;;;5283468;28;20325;-77
2023/05/20 05:43:53;;;;;;;7.90;1.95;;;;;;;;;;5283327;28;20120;-76
2023/05/20 05:46:24;;;;;;;5.53;1.90;;;;;;;;;;5284353;28;20024;-76
2023/05/20 05:48:57;;;;;;;4.45;1.73;;;;;;;;;;5282619;28;20020;-75
2023/05/20 05:51:29;;;;;;;7.10;2.17;;;;;;;;;;5283889;28;20068;-75
2023/05/20 05:54:00;;;;;;;6.57;1.90;;;;;;;;;;5283506;28;20021;-76
2023/05/20 05:56:32;;;;;;;8.32;2.22;;;;;;;;;;5282680;28;20095;-76
2023/05/20 05:59:03;;;;;;;5.07;1.83;;;;;;;;;;5283231;28;20055;-75
2023/05/20 06:01:36;;;;;;;3.63;1.60;;;;;;;;;;5283051;28;20097;-76
2023/05/20 06:04:07;;;;;;;3.92;1.50;;;;;;;;;;5283190;28;20037;-75
2023/05/20 06:06:39;;;;;;;5.07;1.52;;;;;;;;;;5282000;28;20421;-76
2023/05/20 06:09:10;;;;;;;5.75;1.88;;;;;;;;;;5283156;28;20028;-76
2023/05/20 06:11:43;;;;;;;9.50;1.95;;;;;;;;;;5282821;28;20049;-76
2023/05/20 06:14:14;;;;;;;3.58;1.73;;;;;;;;;;5283402;28;20028;-76
2023/05/20 06:16:45;;;;;;;7.35;2.67;;;;;;;;;;5282249;28;20361;-76
2023/05/20 06:19:16;;;;;;;4.25;1.60;;;;;;;;;;5283350;28;20111;-75
2023/05/20 06:21:47;;;;;;;7.35;1.75;;;;;;;;;;5282854;28;20012;-76
2023/05/20 06:24:19;;;;;;;6.28;2.22;;;;;;;;;;5282386;28;20024;-76
2023/05/20 06:26:51;;;;;;;3.50;1.77;;;;;;;;;;5282330;28;20134;-76
2023/05/20 06:29:22;;;;;;;5.40;1.52;;;;;;;;;;5282930;28;20017;-77
2023/05/20 06:31:53;;;;;;;7.72;1.67;;;;;;;;;;5281592;28;20418;-76
2023/05/20 06:34:24;;;;;;;5.55;1.58;;;;;;;;;;5283103;28;20016;-76
2023/05/20 06:36:56;;;;;;;4.40;1.48;;;;;;;;;;5281963;28;20259;-77
2023/05/20 06:39:27;;;;;;;4.53;1.30;;;;;;;;;;5282701;28;20266;-78
2023/05/20 06:41:58;;;;;;;7.00;2.10;;;;;;;;;;5282348;28;20012;-77
2023/05/20 06:44:30;;;;;;;5.93;1.53;;;;;;;;;;5281645;28;20389;-78
2023/05/20 06:47:01;;;;;;;3.72;1.55;;;;;;;;;;5282632;28;20314;-78
2023/05/20 06:49:32;;;;;;;3.85;1.55;;;;;;;;;;5282517;28;20013;-77
2023/05/20 06:52:03;;;;;;;5.17;1.60;;;;;;;;;;5281575;28;20017;-78
2023/05/20 06:54:38;;;;;;;4.82;1.20;;;;;;;;;;5282265;28;20274;-78
2023/05/20 06:57:10;;;;;;;3.33;1.65;;;;;;;;;;5282456;28;20024;-75
2023/05/20 06:59:41;;;;;;;5.78;1.38;;;;;;;;;;5280655;28;20460;-76
2023/05/20 07:02:12;;;;;;;3.67;1.37;;;;;;;;;;5282824;28;20104;-76
2023/05/20 07:04:43;;;;;;;6.33;1.10;;;;;;;;;;5282011;28;20306;-76
2023/05/20 07:07:14;;;;;;;4.43;1.25;;;;;;;;;;5281554;28;20302;-76
2023/05/20 07:09:45;;;;;;;3.10;1.38;;;;;;;;;;5281912;28;20616;-76
2023/05/20 07:12:17;;;;;;;3.77;1.10;;;;;;;;;;5281795;28;20065;-76
2023/05/20 07:14:48;;;;;;;2.45;1.02;;;;;;;;;;5281597;28;20278;-77
2023/05/20 07:17:20;;;;;;;3.28;1.20;;;;;;;;;;5282107;28;20513;-76
2023/05/20 07:19:51;;;;;;;4.18;1.27;;;;;;;;;;5280792;28;20019;-76
2023/05/20 07:22:22;;;;;;;3.10;0.90;;;;;;;;;;5282467;28;20020;-76
2023/05/20 07:24:53;;;;;;;3.47;1.17;;;;;;;;;;5281677;28;20028;-75
2023/05/20 07:27:24;;;;;;;7.23;1.63;;;;;;;;;;5281273;28;20493;-76
2023/05/20 07:29:55;;;;;;;4.13;1.30;;;;;;;;;;5281396;28;20278;-77
2023/05/20 07:32:27;;;;;;;6.65;1.10;;;;;;;;;;5281780;28;20294;-75
2023/05/20 07:34:58;;;;;;;4.10;1.07;;;;;;;;;;5280788;28;20108;-77
2023/05/20 07:37:29;;;;;;;2.40;1.10;;;;;;;;;;5281962;28;20266;-76
2023/05/20 07:40:00;;;;;;;6.20;1.10;;;;;;;;;;5280939;28;20298;-76
2023/05/20 07:42:31;;;;;;;4.50;1.10;;;;;;;;;;5281560;28;20013;-76
2023/05/20 07:45:03;;;;;;;3.05;1.10;;;;;;;;;;5281681;28;20059;-76
2023/05/20 07:47:34;;;;;;;3.63;1.05;;;;;;;;;;5280820;28;20263;-76
2023/05/20 07:50:05;;;;;;;3.15;1.02;;;;;;;;;;5281696;28;20020;-75
2023/05/20 07:52:36;;;;;;;2.63;0.98;;;;;;;;;;5281581;28;20088;-76
2023/05/20 07:55:08;;;;;;;2.05;0.90;;;;;;;;;;5280887;28;20114;-76
2023/05/20 07:57:39;;;;;;;4.75;1.17;;;;;;;;;;5280946;28;20012;-74
2023/05/20 08:00:11;;;;;;;3.30;0.80;;;;;;;;;;5281810;28;20039;-76
2023/05/20 08:02:42;;;;;;;4.05;0.80;;;;;;;;;;5279448;28;20313;-76
2023/05/20 08:05:13;;;;;;;4.32;0.80;;;;;;;;;;5281573;28;20040;-75
2023/05/20 08:07:44;;;;;;;2.73;1.07;;;;;;;;;;5280567;28;20027;-76
2023/05/20 08:10:15;;;;;;;2.83;0.98;;;;;;;;;;5280939;28;20335;-76
2023/05/20 08:12:47;;;;;;;8.45;1.65;;;;;;;;;;5281102;28;20027;-77
2023/05/20 08:15:18;;;;;;;4.57;1.00;;;;;;;;;;5281434;28;20008;-77
2023/05/20 08:17:49;;;;;;;2.97;1.20;;;;;;;;;;5280498;28;20032;-77
2023/05/20 08:20:20;;;;;;;1.92;0.80;;;;;;;;;;5281739;28;20309;-78
2023/05/20 08:22:51;;;;;;;3.67;1.00;;;;;;;;;;5279953;28;20267;-77
2023/05/20 08:25:22;;;;;;;4.73;0.97;;;;;;;;;;5279356;28;20314;-78
2023/05/20 08:27:53;;;;;;;4.63;0.87;;;;;;;;;;5278803;28;20274;-79
2023/05/20 08:30:25;;;;;;;5.15;1.60;;;;;;;;;;5282515;28;20271;-77
2023/05/20 08:32:56;;;;;;;3.65;1.02;;;;;;;;;;5284997;28;20285;-77
2023/05/20 08:35:27;;;;;;;8.33;1.23;;;;;;;;;;5285569;28;20274;-77
2023/05/20 08:38:00;;;;;;;4.97;1.00;;;;;;;;;;5284400;28;20655;-78
2023/05/20 08:40:33;;;;;;;3.08;1.23;;;;;;;;;;5284873;28;20381;-78
2023/05/20 08:43:05;;;;;;;5.63;0.80;;;;;;;;;;5285074;28;20221;-78
2023/05/20 08:45:36;;;;;;;4.93;0.90;;;;;;;;;;5283577;28;20115;-77
2023/05/20 08:48:08;;;;;;;4.65;1.00;;;;;;;;;;5281049;28;20505;-76
2023/05/20 08:50:39;;;;;;;2.73;0.90;;;;;;;;;;5282714;28;20043;-76
2023/05/20 08:53:10;;;;;;;4.25;0.90;;;;;;;;;;5285074;28;20334;-77
2023/05/20 08:55:45;;;;;;;2.63;0.77;;;;;;;;;;5284058;28;20153;-78
2023/05/20 08:58:18;;;;;;;3.70;0.80;;;;;;;;;;5284116;28;20291;-80
2023/05/20 09:00:50;;;;;;;2.08;0.88;;;;;;;;;;5284379;28;20027;-77
2023/05/20 09:03:22;;;;;;;3.45;0.88;;;;;;;;;;5284938;28;20020;-77
2023/05/20 09:06:02;;;;;;;2.90;0.70;;;;;;;;;;5283060;28;20357;-78
2023/05/20 09:08:33;;;;;;;5.05;0.80;;;;;;;;;;5284364;28;20098;-78
2023/05/20 09:11:05;;;;;;;3.78;0.93;;;;;;;;;;5284245;28;20044;-78
2023/05/20 09:13:36;;;;;;;3.67;0.60;;;;;;;;;;5283737;28;20037;-77
2023/05/20 09:16:08;;;;;;;3.45;0.60;;;;;;;;;;5284268;28;20119;-78
2023/05/20 09:18:40;;;;;;;2.58;0.60;;;;;;;;;;5282933;28;20025;-77
2023/05/20 09:21:11;;;;;;;6.70;0.80;;;;;;;;;;5284658;28;20502;-78
2023/05/20 09:23:46;;;;;;;2.85;0.60;;;;;;;;;;5283498;28;20062;-78
2023/05/20 09:26:17;;;;;;;2.38;0.52;;;;;;;;;;5283711;28;20029;-78
2023/05/20 09:28:48;;;;;;;2.58;0.70;;;;;;;;;;5283757;28;20020;-77
2023/05/20 09:31:19;;;;;;;2.60;0.60;;;;;;;;;;5284626;28;20025;-77
2023/05/20 09:33:51;;;;;;;1.83;0.80;;;;;;;;;;5283026;28;20308;-78
2023/05/20 09:36:23;;;;;;;1.65;0.47;;;;;;;;;;5284257;28;20344;-77
2023/05/20 09:38:55;;;;;;;1.25;0.70;;;;;;;;;;5283747;28;20047;-78
2023/05/20 09:41:32;;;;;;;3.78;0.60;;;;;;;;;;5283214;28;20415;-78
2023/05/20 09:44:05;;;;;;;5.72;0.80;;;;;;;;;;5283945;28;20020;-78
2023/05/20 09:46:37;;;;;;;1.88;0.60;;;;;;;;;;5283048;28;20028;-78
2023/05/20 09:49:10;;;;;;;2.38;0.70;;;;;;;;;;5283950;28;20042;-78
2023/05/20 09:51:42;;;;;;;3.95;0.65;;;;;;;;;;5283173;28;20115;-79
2023/05/20 09:54:14;;;;;;;3.22;0.77;;;;;;;;;;5283451;28;20022;-78
2023/05/20 09:56:45;;;;;;;2.63;0.70;;;;;;;;;;5283264;28;20033;-79
2023/05/20 09:59:17;;;;;;;2.17;0.60;;;;;;;;;;5283617;28;20045;-79
2023/05/20 10:01:48;;;;;;;3.13;0.82;;;;;;;;;;5282658;28;20127;-80
2023/05/20 10:04:20;;;;;;;2.50;0.50;;;;;;;;;;5283589;28;20033;-80
2023/05/20 10:07:10;;;;;;;2.85;0.60;;;;;;;;;;5282925;28;20017;-80
2023/05/20 10:09:45;;;;;;;2.42;0.80;;;;;;;;;;5282252;28;20422;-79
2023/05/20 10:12:19;;;;;;;2.40;0.80;;;;;;;;;;5283454;28;20379;-81
2023/05/20 10:14:53;;;;;;;4.93;0.90;;;;;;;;;;5282248;28;20474;-81
2023/05/20 10:17:27;;;;;;;2.70;0.70;;;;;;;;;;5283555;28;20024;-81
2023/05/20 10:19:59;;;;;;;2.50;0.80;;;;;;;;;;5282873;28;20024;-80
2023/05/20 10:22:30;;;;;;;5.65;0.70;;;;;;;;;;5282040;28;20020;-81
2023/05/20 10:25:08;;;;;;;1.70;0.70;;;;;;;;;;5282980;28;20028;-80
2023/05/20 10:27:45;;;;;;;2.88;0.80;;;;;;;;;;5282668;28;20021;-81
2023/05/20 10:30:18;;;;;;;3.55;0.80;;;;;;;;;;5282508;28;20022;-80
2023/05/20 10:32:55;;;;;;;4.78;0.73;;;;;;;;;;5282241;28;20362;-81
2023/05/20 10:35:26;;;;;;;2.10;0.90;;;;;;;;;;5282910;28;20067;-81
2023/05/20 10:38:08;;;;;;;2.72;0.60;;;;;;;;;;5281468;28;20450;-80
2023/05/20 10:40:40;;;;;;;1.88;0.60;;;;;;;;;;5282291;28;20398;-80
2023/05/20 10:43:12;;;;;;;2.42;0.70;;;;;;;;;;5281974;28;20039;-80
2023/05/20 10:45:53;;;;;;;2.17;0.70;;;;;;;;;;5281989;28;20447;-81
2023/05/20 10:48:26;;;;;;;3.70;0.98;;;;;;;;;;5282884;28;20060;-81
2023/05/20 10:50:58;;;;;;;3.30;0.60;;;;;;;;;;5280550;28;20067;-81
2023/05/20 10:53:37;;;;;;;4.15;0.60;;;;;;;;;;5279912;28;20025;-80
2023/05/20 10:56:38;;;;;;;3.58;0.60;;;;;;;;;;5281131;28;20043;-81
2023/05/20 10:59:09;;;;;;;1.95;0.80;;;;;;;;;;5274476;28;20123;-81
2023/05/20 11:01:41;;;;;;;2.50;0.80;;;;;;;;;;5279795;28;20095;-81
2023/05/20 11:04:13;;;;;;;3.50;0.90;;;;;;;;;;5279583;28;20070;-81
2023/05/20 11:06:52;;;;;;;3.15;0.68;;;;;;;;;;5279588;28;20476;-81
2023/05/20 11:09:23;;;;;;;1.65;0.80;;;;;;;;;;5280228;28;20104;-81
2023/05/20 11:11:54;;;;;;;3.85;0.60;;;;;;;;;;5271213;28;20243;-80
2023/05/20 11:14:29;;;;;;;3.85;0.60;;;;;;;;;;5280933;28;20016;-80
2023/05/20 11:17:00;;;;;;;4.95;0.80;;;;;;;;;;5281702;28;20036;-81
2023/05/20 11:19:31;;;;;;;4.20;0.70;;;;;;;;;;5281018;28;20028;-81
2023/05/20 11:22:02;;;;;;;1.70;0.60;;;;;;;;;;5281443;28;20024;-80
2023/05/20 11:24:34;;;;;;;4.25;0.57;;;;;;;;;;5281591;28;20017;-81
2023/05/20 11:27:05;;;;;;;2.13;0.70;;;;;;;;;;5280444;28;20021;-81
2023/05/20 11:29:37;;;;;;;3.47;0.60;;;;;;;;;;5281533;28;20024;-80
2023/05/20 11:32:08;;;;;;;2.17;0.80;;;;;;;;;;5280795;28;20070;-81
2023/05/20 11:34:41;;;;;;;4.05;0.70;;;;;;;;;;5281308;28;20455;-81
2023/05/20 11:37:14;;;;;;;4.20;0.75;;;;;;;;;;5281744;28;20024;-81
2023/05/20 11:39:45;;;;;;;2.00;0.70;;;;;;;;;;5279382;28;20020;-81
2023/05/20 11:42:17;;;;;;;3.13;0.80;;;;;;;;;;5279996;28;20108;-81
2023/05/20 11:44:48;;;;;;;3.63;0.70;;;;;;;;;;5279938;28;20379;-82
2023/05/20 11:47:26;;;;;;;1.77;0.70;;;;;;;;;;5281554;28;20277;-81
2023/05/20 11:49:58;;;;;;;2.67;0.77;;;;;;;;;;5281345;28;20399;-81
2023/05/20 11:52:32;;;;;;;2.70;0.80;;;;;;;;;;5281269;28;20058;-81
2023/05/20 11:55:03;;;;;;;1.65;0.60;;;;;;;;;;5280909;28;20052;-81
2023/05/20 11:57:35;;;;;;;2.88;0.82;;;;;;;;;;5272221;28;20052;-80
2023/05/20 12:00:09;;;;;;;2.33;0.80;;;;;;;;;;5281444;28;20021;-81
2023/05/20 12:02:40;;;;;;;2.28;0.70;;;;;;;;;;5280198;28;20027;-81
2023/05/20 12:05:12;;;;;;;3.60;0.60;;;;;;;;;;5283206;28;20029;-80
2023/05/20 12:07:43;;;;;;;8.63;0.80;;;;;;;;;;5284241;28;20350;-81
2023/05/20 12:10:15;;;;;;;5.55;0.77;;;;;;;;;;5285088;28;20059;-81
2023/05/20 12:12:46;;;;;;;2.03;0.70;;;;;;;;;;5285224;28;20012;-80
2023/05/20 12:15:17;;;;;;;1.83;0.75;;;;;;;;;;5284821;28;20028;-80
2023/05/20 12:17:50;;;;;;;1.87;0.60;;;;;;;;;;5266068;28;20356;-81
2023/05/20 12:20:22;;;;;;;3.58;0.70;;;;;;;;;;5285418;28;20317;-82
2023/05/20 12:22:54;;;;;;;5.00;0.70;;;;;;;;;;5284451;28;20017;-80
2023/05/20 12:25:25;;;;;;;2.10;0.60;;;;;;;;;;5285792;28;20047;-81
2023/05/20 12:27:57;;;;;;;2.92;1.05;;;;;;;;;;5283538;28;20347;-81
2023/05/20 12:30:29;;;;;;;4.30;0.60;;;;;;;;;;5284656;28;20020;-81
2023/05/20 12:33:01;;;;;;;4.15;0.63;;;;;;;;;;5285209;28;20020;-80
2023/05/20 12:35:39;;;;;;;3.15;0.68;;;;;;;;;;5284437;28;20379;-81
2023/05/20 12:38:10;;;;;;;2.00;0.70;;;;;;;;;;5285305;28;20027;-81
2023/05/20 12:40:41;;;;;;;2.20;0.60;;;;;;;;;;5284846;28;20360;-80
2023/05/20 12:43:13;;;;;;;2.10;0.52;;;;;;;;;;5284550;28;20305;-81
2023/05/20 12:45:44;;;;;;;3.42;0.80;;;;;;;;;;5284650;28;20031;-81
2023/05/20 12:48:15;;;;;;;3.05;0.90;;;;;;;;;;5285376;28;20013;-81
2023/05/20 12:50:46;;;;;;;4.67;0.90;;;;;;;;;;5283796;28;20116;-82
2023/05/20 12:53:18;;;;;;;2.57;0.70;;;;;;;;;;5284805;28;20375;-81
2023/05/20 12:55:49;;;;;;;8.40;0.77;;;;;;;;;;5284480;28;20288;-81
2023/05/20 12:58:20;;;;;;;3.33;0.80;;;;;;;;;;5283524;28;20286;-82
2023/05/20 13:00:51;;;;;;;2.27;0.67;;;;;;;;;;5284307;28;20275;-81
2023/05/20 13:03:22;;;;;;;2.00;0.80;;;;;;;;;;5284962;28;20350;-81
2023/05/20 13:05:53;;;;;;;6.43;0.70;;;;;;;;;;5283364;28;20033;-80
2023/05/20 13:08:25;;;;;;;10.70;1.00;;;;;;;;;;5284759;28;20353;-80
2023/05/20 13:10:56;;;;;;;2.93;0.80;;;;;;;;;;5283053;28;20680;-80
2023/05/20 13:13:27;;;;;;;2.53;0.70;;;;;;;;;;5284443;28;20281;-81
2023/05/20 13:15:58;;;;;;;1.73;0.60;;;;;;;;;;5283377;28;20271;-81
2023/05/20 13:18:29;;;;;;;3.23;0.60;;;;;;;;;;5284021;28;20325;-80
2023/05/20 13:21:00;;;;;;;9.13;1.25;;;;;;;;;;5284551;28;20263;-81
2023/05/20 13:23:32;;;;;;;1.97;0.70;;;;;;;;;;5284447;28;20017;-82
2023/05/20 13:26:03;;;;;;;1.95;0.60;;;;;;;;;;5283398;28;20287;-81
2023/05/20 13:28:35;;;;;;;3.15;0.90;;;;;;;;;;5283989;28;20043;-83
2023/05/20 13:31:06;;;;;;;2.10;0.70;;;;;;;;;;5283760;28;20020;-81
2023/05/20 13:33:38;;;;;;;4.60;0.90;;;;;;;;;;5282833;28;20107;-81
2023/05/20 13:36:09;;;;;;;2.40;0.93;;;;;;;;;;5284245;28;20529;-83
2023/05/20 13:38:40;;;;;;;1.45;0.70;;;;;;;;;;5282982;28;20020;-82
2023/05/20 13:41:11;;;;;;;2.93;0.60;;;;;;;;;;5284167;28;20024;-81
2023/05/20 13:43:43;;;;;;;3.35;0.93;;;;;;;;;;5283829;28;20306;-81
2023/05/20 13:46:15;;;;;;;2.78;0.60;;;;;;;;;;5283200;28;20037;-81
2023/05/20 13:48:46;;;;;;;1.67;0.63;;;;;;;;;;5283442;28;20012;-82
2023/05/20 13:51:17;;;;;;;2.33;0.55;;;;;;;;;;5283811;28;20099;-81
2023/05/20 13:53:48;;;;;;;3.63;0.80;;;;;;;;;;5282904;28;20024;-82
2023/05/20 13:56:20;;;;;;;2.10;0.60;;;;;;;;;;5284253;28;20324;-80
2023/05/20 13:58:51;;;;;;;3.92;0.80;;;;;;;;;;5283072;28;20043;-79
2023/05/20 14:01:22;;;;;;;2.47;0.90;;;;;;;;;;5282978;28;20034;-80
2023/05/20 14:03:53;;;;;;;1.23;0.60;;;;;;;;;;5281797;28;20279;-80
2023/05/20 14:06:25;;;;;;;3.07;0.60;;;;;;;;;;5281900;28;20048;-81
2023/05/20 14:08:56;;;;;;;3.35;0.60;;;;;;;;;;5280597;28;20755;-80
2023/05/20 14:11:27;;;;;;;3.20;0.52;;;;;;;;;;5281390;28;20027;-79
2023/05/20 14:13:59;;;;;;;1.90;0.77;;;;;;;;;;5280059;28;20017;-80
2023/05/20 14:16:31;;;;;;;5.53;0.70;;;;;;;;;;5280723;28;20297;-80
2023/05/20 14:19:02;;;;;;;1.67;0.50;;;;;;;;;;5281531;28;20025;-80
2023/05/20 14:21:33;;;;;;;3.73;0.60;;;;;;;;;;5282249;28;20074;-80
2023/05/20 14:24:05;;;;;;;1.37;0.70;;;;;;;;;;5282746;28;20305;-80
2023/05/20 14:26:36;;;;;;;1.75;0.60;;;;;;;;;;5282636;28;20775;-80
2023/05/20 14:29:07;;;;;;;1.20;0.50;;;;;;;;;;5281326;28;20360;-80
2023/05/20 14:31:38;;;;;;;2.27;0.50;;;;;;;;;;5282668;28;20296;-80
2023/05/20 14:34:09;;;;;;;3.58;0.60;;;;;;;;;;5283147;28;20263;-77
2023/05/20 14:36:41;;;;;;;2.17;0.60;;;;;;;;;;5281370;28;20056;-79
2023/05/20 14:39:12;;;;;;;3.00;0.90;;;;;;;;;;5282958;28;20255;-76
2023/05/20 14:41:43;;;;;;;2.35;0.60;;;;;;;;;;5282469;28;20020;-76
2023/05/20 14:44:14;;;;;;;2.50;0.70;;;;;;;;;;5282113;28;20017;-76
2023/05/20 14:46:45;;;;;;;1.02;0.52;;;;;;;;;;5281903;28;20803;-76
2023/05/20 14:49:17;;;;;;;1.83;0.65;;;;;;;;;;5281969;28;20031;-77
2023/05/20 14:51:48;;;;;;;3.50;0.57;;;;;;;;;;5282010;28;20017;-77
2023/05/20 14:54:23;;;;;;;2.92;0.65;;;;;;;;;;5282733;28;20772;-76
2023/05/20 14:56:54;;;;;;;4.10;0.93;;;;;;;;;;5281220;28;20020;-77
2023/05/20 14:59:26;;;;;;;3.20;0.50;;;;;;;;;;5282420;28;20500;-77
2023/05/20 15:01:57;;;;;;;3.88;0.60;;;;;;;;;;5281742;28;20274;-76
2023/05/20 15:04:28;;;;;;;3.08;0.60;;;;;;;;;;5281387;28;20379;-76
2023/05/20 15:07:00;;;;;;;4.57;0.80;;;;;;;;;;5281847;28;20017;-76
2023/05/20 15:09:32;;;;;;;2.08;0.70;;;;;;;;;;5281987;28;20025;-76